createdAt,value
2022-11-14T00:01:10.165Z,46.47
2022-11-14T00:03:36.782Z,46.28
2022-11-14T00:06:06.949Z,46.20
2022-11-14T00:08:33.822Z,46.78
2022-11-14T00:11:00.617Z,46.10
2022-11-14T00:13:27.286Z,47.78
2022-11-14T00:15:54.374Z,46.20
2022-11-14T00:18:21.360Z,46.83
2022-11-14T00:20:49.975Z,46.40
2022-11-14T00:23:16.683Z,45.40
2022-11-14T00:25:46.557Z,45.72
2022-11-14T00:28:13.792Z,46.65
2022-11-14T00:30:40.466Z,47.75
2022-11-14T00:33:07.137Z,46.67
2022-11-14T00:35:33.838Z,46.58
2022-11-14T00:38:00.717Z,45.17
2022-11-14T00:40:27.399Z,45.85
2022-11-14T00:42:54.450Z,47.13
2022-11-14T00:45:21.128Z,47.38
2022-11-14T00:47:47.748Z,47.22
2022-11-14T00:50:15.958Z,48.17
2022-11-14T00:52:42.582Z,46.45
2022-11-14T00:55:09.537Z,45.58
2022-11-14T00:57:36.146Z,47.05
2022-11-14T01:00:02.822Z,44.63
2022-11-14T01:02:29.467Z,46.63
2022-11-14T01:04:56.139Z,48.78
2022-11-14T01:07:22.818Z,46.55
2022-11-14T01:09:49.443Z,45.70
2022-11-14T01:12:16.140Z,45.97
2022-11-14T01:14:42.780Z,48.08
2022-11-14T01:17:09.610Z,46.92
2022-11-14T01:19:36.287Z,47.17
2022-11-14T01:22:06.121Z,47.42
2022-11-14T01:24:34.403Z,47.10
2022-11-14T01:27:01.203Z,47.17
2022-11-14T01:29:28.379Z,47.00
2022-11-14T01:31:56.295Z,49.65
2022-11-14T01:34:23.682Z,47.58
2022-11-14T01:36:50.327Z,47.00
2022-11-14T01:39:16.990Z,47.38
2022-11-14T01:41:43.629Z,48.28
2022-11-14T01:44:17.564Z,46.97
2022-11-14T01:46:49.788Z,48.13
2022-11-14T01:49:21.560Z,46.97
2022-11-14T01:52:03.322Z,48.03
2022-11-14T01:54:34.522Z,46.13
2022-11-14T01:57:03.441Z,47.03
2022-11-14T01:59:42.520Z,46.90
2022-11-14T02:02:14.980Z,46.67
2022-11-14T02:04:46.995Z,46.40
2022-11-14T02:07:14.833Z,46.53
2022-11-14T02:09:45.168Z,46.88
2022-11-14T02:12:14.467Z,47.92
2022-11-14T02:14:45.220Z,47.35
2022-11-14T02:17:29.919Z,47.08
2022-11-14T02:20:05.299Z,46.05
2022-11-14T02:22:32.776Z,45.65
2022-11-14T02:24:59.479Z,46.40
2022-11-14T02:27:26.389Z,47.67
2022-11-14T02:29:53.070Z,46.38
2022-11-14T02:32:19.829Z,45.67
2022-11-14T02:34:46.553Z,47.35
2022-11-14T02:37:13.193Z,46.63
2022-11-14T02:39:39.885Z,47.25
2022-11-14T02:42:06.636Z,46.47
2022-11-14T02:44:33.357Z,47.75
2022-11-14T02:46:59.974Z,48.42
2022-11-14T02:49:26.620Z,48.38
2022-11-14T02:51:53.265Z,48.70
2022-11-14T02:54:19.912Z,48.45
2022-11-14T02:56:46.543Z,46.33
2022-11-14T02:59:13.168Z,47.40
2022-11-14T03:01:39.868Z,47.42
2022-11-14T03:04:06.596Z,47.88
2022-11-14T03:06:33.301Z,49.15
2022-11-14T03:09:00.083Z,48.28
2022-11-14T03:11:26.851Z,47.45
2022-11-14T03:13:53.508Z,49.35
2022-11-14T03:16:20.460Z,47.72
2022-11-14T03:18:47.065Z,50.63
2022-11-14T03:21:19.860Z,48.97
2022-11-14T03:23:46.922Z,49.13
2022-11-14T03:26:14.810Z,47.97
2022-11-14T03:28:42.312Z,47.45
2022-11-14T03:31:11.648Z,47.17
2022-11-14T03:33:38.571Z,51.20
2022-11-14T03:36:06.316Z,49.33
2022-11-14T03:38:33.168Z,50.35
2022-11-14T03:41:00.565Z,50.40
2022-11-14T03:43:31.993Z,49.40
2022-11-14T03:46:02.857Z,48.38
2022-11-14T03:48:30.912Z,49.55
2022-11-14T03:50:58.252Z,48.45
2022-11-14T03:53:25.154Z,49.53
2022-11-14T03:55:52.554Z,49.33
2022-11-14T03:58:19.208Z,47.97
2022-11-14T04:00:45.923Z,49.67
2022-11-14T04:03:12.637Z,47.97
2022-11-14T04:05:39.387Z,47.55
2022-11-14T04:08:07.091Z,50.03
2022-11-14T04:10:33.890Z,50.63
2022-11-14T04:13:00.564Z,49.15
2022-11-14T04:15:27.184Z,51.08
2022-11-14T04:17:53.815Z,50.20
2022-11-14T04:20:20.516Z,51.53
2022-11-14T04:22:47.212Z,49.88
2022-11-14T04:25:13.935Z,50.33
2022-11-14T04:27:40.707Z,51.28
2022-11-14T04:30:07.867Z,52.30
2022-11-14T04:32:34.563Z,53.28
2022-11-14T04:35:01.338Z,50.20
2022-11-14T04:37:27.984Z,50.47
2022-11-14T04:39:58.702Z,49.47
2022-11-14T04:42:26.004Z,50.50
2022-11-14T04:44:52.774Z,51.25
2022-11-14T04:47:19.593Z,50.28
2022-11-14T04:49:46.276Z,48.92
2022-11-14T04:52:12.925Z,49.38
2022-11-14T04:54:39.766Z,50.70
2022-11-14T04:57:06.393Z,52.22
2022-11-14T04:59:33.067Z,52.42
2022-11-14T05:01:59.839Z,53.70
2022-11-14T05:04:26.552Z,52.20
2022-11-14T05:06:53.221Z,51.67
2022-11-14T05:09:19.917Z,53.28
2022-11-14T05:11:46.628Z,53.90
2022-11-14T05:14:13.268Z,54.10
2022-11-14T05:16:39.883Z,52.95
2022-11-14T05:19:06.534Z,51.28
2022-11-14T05:21:33.340Z,51.00
2022-11-14T05:24:00.000Z,47.88
2022-11-14T05:26:27.172Z,47.85
2022-11-14T05:28:53.844Z,48.60
2022-11-14T05:31:20.504Z,47.45
2022-11-14T05:33:48.071Z,48.95
2022-11-14T05:36:16.791Z,49.40
2022-11-14T05:38:43.586Z,45.75
2022-11-14T05:41:16.803Z,48.97
2022-11-14T05:43:43.795Z,47.83
2022-11-14T05:46:12.487Z,47.35
2022-11-14T05:48:39.640Z,46.50
2022-11-14T05:51:07.407Z,47.83
2022-11-14T05:53:34.674Z,45.97
2022-11-14T05:56:02.997Z,45.58
2022-11-14T05:58:32.020Z,46.22
2022-11-14T06:01:14.284Z,48.05
2022-11-14T06:03:45.929Z,45.63
2022-11-14T06:06:16.517Z,45.53
2022-11-14T06:08:43.706Z,49.38
2022-11-14T06:11:13.831Z,47.00
2022-11-14T06:13:41.893Z,46.47
2022-11-14T06:16:11.912Z,44.42
2022-11-14T06:18:39.019Z,45.00
2022-11-14T06:21:07.009Z,45.03
2022-11-14T06:23:34.059Z,45.88
2022-11-14T06:26:02.215Z,45.80
2022-11-14T06:28:29.533Z,46.55
2022-11-14T06:31:01.548Z,47.15
2022-11-14T06:33:29.790Z,47.00
2022-11-14T06:36:00.899Z,46.05
2022-11-14T06:38:28.873Z,44.88
2022-11-14T06:41:03.131Z,46.33
2022-11-14T06:43:33.521Z,45.47
2022-11-14T06:46:00.336Z,44.95
2022-11-14T06:48:27.954Z,44.72
2022-11-14T06:50:56.712Z,43.65
2022-11-14T06:53:24.313Z,43.45
2022-11-14T06:56:05.326Z,44.35
2022-11-14T06:58:35.122Z,46.00
2022-11-14T07:01:06.989Z,45.30
2022-11-14T07:03:34.145Z,45.00
2022-11-14T07:06:01.765Z,46.03
2022-11-14T07:08:29.151Z,44.95
2022-11-14T07:11:02.716Z,42.28
2022-11-14T07:13:29.561Z,43.33
2022-11-14T07:15:56.275Z,42.92
2022-11-14T07:18:23.002Z,45.85
2022-11-14T07:20:49.648Z,45.17
2022-11-14T07:23:21.499Z,45.85
2022-11-14T07:25:49.517Z,45.10
2022-11-14T07:28:16.186Z,42.25
2022-11-14T07:30:42.837Z,43.60
2022-11-14T07:33:10.242Z,41.13
2022-11-14T07:35:39.680Z,41.63
2022-11-14T07:38:06.355Z,40.15
2022-11-14T07:40:33.058Z,41.30
2022-11-14T07:43:00.726Z,41.25
2022-11-14T07:45:28.974Z,40.67
2022-11-14T07:48:01.254Z,41.22
2022-11-14T07:50:29.280Z,41.53
2022-11-14T07:52:57.587Z,41.05
2022-11-14T07:55:25.242Z,41.08
2022-11-14T07:57:55.447Z,41.47
2022-11-14T08:00:22.248Z,40.55
2022-11-14T08:02:49.019Z,40.78
2022-11-14T08:05:16.048Z,41.53
2022-11-14T08:07:43.338Z,42.45
2022-11-14T08:10:11.804Z,41.70
2022-11-14T08:12:39.419Z,42.53
2022-11-14T08:15:11.196Z,41.75
2022-11-14T08:17:37.953Z,42.90
2022-11-14T08:20:06.160Z,39.50
2022-11-14T08:22:33.010Z,38.08
2022-11-14T08:24:59.776Z,38.88
2022-11-14T08:27:26.506Z,42.05
2022-11-14T08:29:53.186Z,38.50
2022-11-14T08:32:19.904Z,39.72
2022-11-14T08:34:46.672Z,41.55
2022-11-14T08:37:13.522Z,39.17
2022-11-14T08:39:40.183Z,39.65
2022-11-14T08:42:06.831Z,39.05
2022-11-14T08:44:33.493Z,38.53
2022-11-14T08:47:00.467Z,38.53
2022-11-14T08:49:27.208Z,38.60
2022-11-14T08:51:53.891Z,36.92
2022-11-14T08:54:21.148Z,37.25
2022-11-14T08:56:47.899Z,37.20
2022-11-14T08:59:14.589Z,37.08
2022-11-14T09:01:41.399Z,37.30
2022-11-14T09:04:09.079Z,37.17
2022-11-14T09:06:35.865Z,38.58
2022-11-14T09:09:02.608Z,37.05
2022-11-14T09:11:29.256Z,35.75
2022-11-14T09:13:55.945Z,34.10
2022-11-14T09:16:22.644Z,34.75
2022-11-14T09:18:49.279Z,34.30
2022-11-14T09:21:16.111Z,36.20
2022-11-14T09:23:42.745Z,34.85
2022-11-14T09:26:10.234Z,35.60
2022-11-14T09:28:37.038Z,36.42
2022-11-14T09:31:06.552Z,35.13
2022-11-14T09:33:34.118Z,35.53
2022-11-14T09:36:02.747Z,36.42
2022-11-14T09:38:35.461Z,34.80
2022-11-14T09:41:43.236Z,34.75
2022-11-14T09:44:26.136Z,33.92
2022-11-14T09:46:58.784Z,32.85
2022-11-14T09:49:29.416Z,33.60
2022-11-14T09:52:33.678Z,33.13
2022-11-14T09:55:09.111Z,33.20
2022-11-14T09:57:35.852Z,31.88
2022-11-14T10:00:02.894Z,31.42
2022-11-14T10:02:57.669Z,32.72
2022-11-14T10:05:45.420Z,32.53
2022-11-14T10:08:29.878Z,32.13
2022-11-14T10:11:04.764Z,31.73
2022-11-14T10:14:04.133Z,32.38
2022-11-14T10:16:55.632Z,33.22
2022-11-14T10:19:42.929Z,33.13
2022-11-14T10:22:18.995Z,31.98
2022-11-14T10:24:48.856Z,33.85
2022-11-14T10:27:22.870Z,32.53
2022-11-14T10:30:03.463Z,33.25
2022-11-14T10:32:32.850Z,32.38
2022-11-14T10:35:15.878Z,33.80
2022-11-14T10:37:57.840Z,31.88
2022-11-14T10:40:51.165Z,31.05
2022-11-14T10:43:24.076Z,30.27
2022-11-14T10:46:12.860Z,30.13
2022-11-14T10:48:42.567Z,29.42
2022-11-14T10:51:21.675Z,29.90
2022-11-14T10:53:56.299Z,30.27
2022-11-14T10:56:22.971Z,29.65
2022-11-14T10:58:50.448Z,28.33
2022-11-14T11:01:44.955Z,29.10
2022-11-14T11:04:34.717Z,28.45
2022-11-14T11:07:07.561Z,27.75
2022-11-14T11:09:55.444Z,28.08
2022-11-14T11:12:42.588Z,27.35
2022-11-14T11:15:20.192Z,28.13
2022-11-14T11:18:23.297Z,27.55
2022-11-14T11:21:15.422Z,26.58
2022-11-14T11:23:53.541Z,25.90
2022-11-14T11:26:26.670Z,25.75
2022-11-14T11:29:17.111Z,26.40
2022-11-14T11:31:58.429Z,26.05
2022-11-14T11:34:26.791Z,26.42
2022-11-14T11:37:02.521Z,26.50
2022-11-14T11:39:33.494Z,26.40
2022-11-14T11:42:09.793Z,24.25
2022-11-14T11:44:43.240Z,25.73
2022-11-14T11:47:14.030Z,24.92
2022-11-14T11:49:54.325Z,25.88
2022-11-14T11:52:27.376Z,26.73
2022-11-14T11:55:09.240Z,24.60
2022-11-14T11:57:44.000Z,24.40
2022-11-14T12:00:15.922Z,24.98
2022-11-14T12:02:49.985Z,24.88
2022-11-14T12:05:34.096Z,24.10
2022-11-14T12:08:09.066Z,25.33
2022-11-14T12:10:40.825Z,24.98
2022-11-14T12:13:26.061Z,24.65
2022-11-14T12:16:01.625Z,23.45
2022-11-14T12:18:43.777Z,23.85
2022-11-14T12:21:30.176Z,22.13
2022-11-14T12:24:03.886Z,22.33
2022-11-14T12:26:48.659Z,22.13
2022-11-14T12:29:25.048Z,22.20
2022-11-14T12:32:02.195Z,22.92
2022-11-14T12:34:39.584Z,21.67
2022-11-14T12:37:34.636Z,20.70
2022-11-14T12:40:05.823Z,21.13
2022-11-14T12:42:33.241Z,20.30
2022-11-14T12:45:00.396Z,20.55
2022-11-14T12:47:28.711Z,22.15
2022-11-14T12:49:56.460Z,19.50
2022-11-14T12:52:42.882Z,19.75
2022-11-14T12:55:18.604Z,20.33
2022-11-14T12:58:04.357Z,20.00
2022-11-14T13:00:32.333Z,20.85
2022-11-14T13:03:37.629Z,22.35
2022-11-14T13:06:23.969Z,21.25
2022-11-14T13:09:21.915Z,20.20
2022-11-14T13:12:07.826Z,21.30
2022-11-14T13:15:13.916Z,20.27
2022-11-14T13:17:59.547Z,21.10
2022-11-14T13:20:48.296Z,20.73
2022-11-14T13:23:27.411Z,20.00
2022-11-14T13:26:13.560Z,21.05
2022-11-14T13:28:49.261Z,19.65
2022-11-14T13:31:15.953Z,18.63
2022-11-14T13:33:45.550Z,19.42
2022-11-14T13:36:28.490Z,19.20
2022-11-14T13:39:27.124Z,18.75
2022-11-14T13:42:09.307Z,19.30
2022-11-14T13:45:00.952Z,18.90
2022-11-14T13:48:05.274Z,18.10
2022-11-14T13:50:36.755Z,18.63
2022-11-14T13:53:13.568Z,18.98
2022-11-14T13:56:04.656Z,19.45
2022-11-14T13:58:40.616Z,19.10
2022-11-14T14:01:39.806Z,18.20
2022-11-14T14:04:40.795Z,18.67
2022-11-14T14:07:11.625Z,18.10
2022-11-14T14:09:54.671Z,18.08
2022-11-14T14:12:32.860Z,18.25
2022-11-14T14:15:33.211Z,19.02
2022-11-14T14:18:43.185Z,19.50
2022-11-14T14:21:45.792Z,19.67
2022-11-14T14:24:36.182Z,19.20
2022-11-14T14:27:08.720Z,18.85
2022-11-14T14:30:00.042Z,17.98
2022-11-14T14:32:26.864Z,18.45
2022-11-14T14:34:56.957Z,19.55
2022-11-14T14:37:27.153Z,18.77
2022-11-14T14:40:02.267Z,18.23
2022-11-14T14:42:49.375Z,18.63
2022-11-14T14:45:19.255Z,19.08
2022-11-14T14:47:49.665Z,17.83
2022-11-14T14:50:21.067Z,18.48
2022-11-14T14:52:59.768Z,18.83
2022-11-14T14:55:34.626Z,20.15
2022-11-14T14:58:20.985Z,18.73
2022-11-14T15:01:16.598Z,20.30
2022-11-14T15:03:48.903Z,20.92
2022-11-14T15:06:31.970Z,20.13
2022-11-14T15:09:07.761Z,20.92
2022-11-14T15:11:36.372Z,20.58
2022-11-14T15:14:03.496Z,20.65
2022-11-14T15:16:31.159Z,19.88
2022-11-14T15:18:59.132Z,21.75
2022-11-14T15:21:30.079Z,21.73
2022-11-14T15:24:11.988Z,21.48
2022-11-14T15:26:39.704Z,21.60
2022-11-14T15:29:07.875Z,21.38
2022-11-14T15:31:36.569Z,21.67
2022-11-14T15:34:20.810Z,22.05
2022-11-14T15:37:18.641Z,21.30
2022-11-14T15:39:46.748Z,22.35
2022-11-14T15:42:16.646Z,23.38
2022-11-14T15:44:43.494Z,21.90
2022-11-14T15:47:13.319Z,24.55
2022-11-14T15:49:40.260Z,24.35
2022-11-14T15:52:20.005Z,22.42
2022-11-14T15:54:46.652Z,22.23
2022-11-14T15:57:15.533Z,22.25
2022-11-14T15:59:42.425Z,22.52
2022-11-14T16:02:16.705Z,24.27
2022-11-14T16:04:47.516Z,22.50
2022-11-14T16:07:16.471Z,23.60
2022-11-14T16:09:43.509Z,21.90
2022-11-14T16:12:10.316Z,23.13
2022-11-14T16:14:37.223Z,23.73
2022-11-14T16:17:04.283Z,23.15
2022-11-14T16:19:31.187Z,22.42
2022-11-14T16:22:02.576Z,21.50
2022-11-14T16:24:33.907Z,22.05
2022-11-14T16:27:01.119Z,22.83
2022-11-14T16:29:28.528Z,23.75
2022-11-14T16:31:55.370Z,21.42
2022-11-14T16:34:24.572Z,21.95
2022-11-14T16:36:58.812Z,24.15
2022-11-14T16:41:52.066Z,23.48
2022-11-14T16:44:18.854Z,23.25
2022-11-14T16:46:46.054Z,22.95
2022-11-14T16:49:17.313Z,22.35
2022-11-14T16:51:49.492Z,23.42
2022-11-14T16:54:18.459Z,22.95
2022-11-14T16:56:45.578Z,23.05
2022-11-14T16:59:13.095Z,21.63
2022-11-14T17:01:39.949Z,23.67
2022-11-14T17:04:06.769Z,23.60
2022-11-14T17:06:33.943Z,24.70
2022-11-14T17:09:01.062Z,25.45
2022-11-14T17:11:28.393Z,25.15
2022-11-14T17:13:56.674Z,23.33
2022-11-14T17:16:23.857Z,23.52
2022-11-14T17:18:55.111Z,24.98
2022-11-14T17:21:22.845Z,23.73
2022-11-14T17:23:56.834Z,25.95
2022-11-14T17:26:23.845Z,25.52
2022-11-14T17:28:50.546Z,24.27
2022-11-14T17:31:17.428Z,25.50
2022-11-14T17:33:49.841Z,23.30
2022-11-14T17:36:17.035Z,25.13
2022-11-14T17:38:43.688Z,24.75
2022-11-14T17:41:10.356Z,24.20
2022-11-14T17:43:39.782Z,24.20
2022-11-14T17:46:12.610Z,25.27
2022-11-14T17:48:42.562Z,22.95
2022-11-14T17:51:12.626Z,24.33
2022-11-14T17:53:39.884Z,24.35
2022-11-14T17:56:07.799Z,24.30
2022-11-14T17:58:34.910Z,23.95
2022-11-14T18:01:01.910Z,23.30
2022-11-14T18:03:28.579Z,24.42
2022-11-14T18:06:09.081Z,25.38
2022-11-14T18:08:35.859Z,24.58
2022-11-14T18:11:04.035Z,26.00
2022-11-14T18:13:30.750Z,23.08
2022-11-14T18:16:10.312Z,26.27
2022-11-14T18:18:37.698Z,25.13
2022-11-14T18:21:22.122Z,24.35
2022-11-14T18:23:56.788Z,22.88
2022-11-14T18:26:28.298Z,25.30
2022-11-14T18:28:56.370Z,24.65
2022-11-14T18:31:23.371Z,25.15
2022-11-14T18:33:50.031Z,24.38
2022-11-14T18:36:17.162Z,23.02
2022-11-14T18:38:44.266Z,25.02
2022-11-14T18:41:14.379Z,24.88
2022-11-14T18:43:41.547Z,24.00
2022-11-14T18:46:19.738Z,25.08
2022-11-14T18:48:48.892Z,24.13
2022-11-14T18:51:18.251Z,23.70
2022-11-14T18:53:45.023Z,24.10
2022-11-14T18:56:14.906Z,26.00
2022-11-14T18:58:42.981Z,24.23
2022-11-14T19:01:23.968Z,25.25
2022-11-14T19:03:51.386Z,23.92
2022-11-14T19:06:18.342Z,25.20
2022-11-14T19:08:45.143Z,24.17
2022-11-14T19:11:33.666Z,26.27
2022-11-14T19:14:05.308Z,24.85
2022-11-14T19:16:33.609Z,24.77
2022-11-14T19:19:01.139Z,23.77
2022-11-14T19:21:28.399Z,26.70
2022-11-14T19:23:55.672Z,25.23
2022-11-14T19:26:23.285Z,24.10
2022-11-14T19:28:50.256Z,24.50
2022-11-14T19:31:17.976Z,26.20
2022-11-14T19:33:45.340Z,25.20
2022-11-14T19:36:15.035Z,25.95
2022-11-14T19:38:42.019Z,25.80
2022-11-14T19:41:20.770Z,25.77
2022-11-14T19:43:48.107Z,26.80
2022-11-14T19:46:17.092Z,26.05
2022-11-14T19:48:44.108Z,25.88
2022-11-14T19:51:19.102Z,26.50
2022-11-14T19:53:46.528Z,28.90
2022-11-14T19:56:16.582Z,27.65
2022-11-14T19:58:44.993Z,28.02
2022-11-14T20:01:14.495Z,27.33
2022-11-14T20:03:42.115Z,27.27
2022-11-14T20:06:21.792Z,28.08
2022-11-14T20:08:48.695Z,26.40
2022-11-14T20:11:15.428Z,28.45
2022-11-14T20:13:42.480Z,27.20
2022-11-14T20:16:17.948Z,25.92
2022-11-14T20:18:46.341Z,27.67
2022-11-14T20:21:14.917Z,27.13
2022-11-14T20:23:41.759Z,27.83
2022-11-14T20:26:11.381Z,27.58
2022-11-14T20:28:43.747Z,28.40
2022-11-14T20:31:16.539Z,27.23
2022-11-14T20:33:46.340Z,28.48
2022-11-14T20:36:18.973Z,26.88
2022-11-14T20:38:45.721Z,25.95
2022-11-14T20:41:12.709Z,28.40
2022-11-14T20:43:40.011Z,25.05
2022-11-14T20:46:18.043Z,25.90
2022-11-14T20:48:46.435Z,27.63
2022-11-14T20:51:21.638Z,26.42
2022-11-14T20:53:49.870Z,25.05
2022-11-14T20:56:17.488Z,27.30
2022-11-14T20:58:45.855Z,29.55
2022-11-14T21:01:13.455Z,27.75
2022-11-14T21:03:40.587Z,27.05
2022-11-14T21:06:08.382Z,27.02
2022-11-14T21:08:36.318Z,26.02
2022-11-14T21:11:05.718Z,25.73
2022-11-14T21:13:53.989Z,24.77
2022-11-14T21:16:22.109Z,25.73
2022-11-14T21:18:52.125Z,24.90
2022-11-14T21:21:21.294Z,25.02
2022-11-14T21:23:48.499Z,25.40
2022-11-14T21:26:21.063Z,26.75
2022-11-14T21:28:50.641Z,23.63
2022-11-14T21:31:49.518Z,22.92
2022-11-14T21:34:18.047Z,23.38
2022-11-14T21:36:46.466Z,25.77
2022-11-14T21:39:15.901Z,24.33
2022-11-14T21:41:43.823Z,25.50
2022-11-14T21:44:13.124Z,23.80
2022-11-14T21:46:40.668Z,23.63
2022-11-14T21:49:07.366Z,23.48
2022-11-14T21:51:34.047Z,23.92
2022-11-14T21:54:02.775Z,23.48
2022-11-14T21:56:31.755Z,27.23
2022-11-14T21:59:16.033Z,25.30
2022-11-14T22:04:31.433Z,27.38
2022-11-14T22:06:59.087Z,23.45
2022-11-14T22:09:29.373Z,22.77
2022-11-14T22:11:56.717Z,30.70
2022-11-14T22:14:23.945Z,26.70
2022-11-14T22:16:50.852Z,24.38
2022-11-14T22:19:18.762Z,26.52
2022-11-14T22:21:45.684Z,24.52
2022-11-14T22:24:12.397Z,20.80
2022-11-14T22:26:40.405Z,23.90
2022-11-14T22:29:07.554Z,34.10
2022-11-14T22:31:34.313Z,22.00
2022-11-14T22:34:01.371Z,24.27
2022-11-14T22:36:28.369Z,24.67
2022-11-14T22:38:56.438Z,26.58
2022-11-14T22:41:33.487Z,31.23
2022-11-14T22:44:00.943Z,27.20
2022-11-14T22:46:27.898Z,27.95
2022-11-14T22:48:55.043Z,32.45
2022-11-14T22:51:23.843Z,28.23
2022-11-14T22:53:55.758Z,29.25
2022-11-14T22:56:24.903Z,25.77
2022-11-14T22:58:51.843Z,27.70
2022-11-14T23:01:25.651Z,28.08
2022-11-14T23:04:00.522Z,27.25
2022-11-14T23:06:28.379Z,28.58
2022-11-14T23:08:55.593Z,29.42
2022-11-14T23:11:25.316Z,29.65
2022-11-14T23:13:53.947Z,28.10
2022-11-14T23:16:29.429Z,27.33
2022-11-14T23:18:57.864Z,30.38
2022-11-14T23:21:35.676Z,25.83
2022-11-14T23:24:05.924Z,27.20
2022-11-14T23:26:33.412Z,26.67
2022-11-14T23:29:00.793Z,28.13
2022-11-14T23:31:27.600Z,27.25
2022-11-14T23:33:55.781Z,25.25
2022-11-14T23:36:22.753Z,28.52
2022-11-14T23:38:52.003Z,28.42
2022-11-14T23:41:20.904Z,30.17
2022-11-14T23:43:47.888Z,26.83
2022-11-14T23:46:14.735Z,27.50
2022-11-14T23:48:42.529Z,25.92
2022-11-14T23:51:09.879Z,25.40
2022-11-14T23:53:36.706Z,25.42
2022-11-14T23:56:03.459Z,25.85
2022-11-14T23:58:30.616Z,25.70
